Time;durP1;ratioP1;P1;durP2;ratioP2;P2;SDS_P1;SDS_P2;PMS_P1;PMS_P2;Temp;Humidity;BMP_temperature;BMP_pressure;BME280_temperature;BME280_humidity;BME280_pressure;Samples;Min_cycle;Max_cycle;Signal;HPM_P1;HPM_P2
2022/06/11 00:01:29;;;;;;;4.60;1.42;;;;;;;20.71;66.88;100675.19;4882720;29;20049;-90
2022/06/11 00:03:59;;;;;;;3.55;0.70;;;;;;;20.78;66.24;100678.66;4882494;29;20041;-89
2022/06/11 00:06:29;;;;;;;5.22;0.90;;;;;;;20.56;67.52;100679.06;4882440;29;20068;-89
2022/06/11 00:08:58;;;;;;;1.13;0.52;;;;;;;20.44;67.30;100671.97;4898222;29;20052;-88
2022/06/11 00:11:27;;;;;;;2.35;0.70;;;;;;;20.29;67.30;100674.16;4894511;29;20062;-88
2022/06/11 00:13:53;;;;;;;2.85;0.88;;;;;;;20.06;67.06;100670.22;4939639;29;20154;-92
2022/06/11 00:16:23;;;;;;;0.68;0.40;;;;;;;20.04;66.57;100674.16;4955131;29;20134;-90
2022/06/11 00:18:51;;;;;;;2.28;0.57;;;;;;;19.97;66.18;100674.22;4939535;29;20039;-91
2022/06/11 00:21:17;;;;;;;0.77;0.47;;;;;;;19.95;65.90;100670.13;4955409;29;20035;-90
2022/06/11 00:23:43;;;;;;;1.02;0.50;;;;;;;19.82;65.94;100670.22;4958762;29;20515;-89
2022/06/11 00:26:10;;;;;;;0.93;0.40;;;;;;;19.89;65.24;100674.47;4957304;29;20051;-88
2022/06/11 00:28:37;;;;;;;1.50;0.55;;;;;;;19.76;66.03;100671.06;4944045;29;20043;-89
2022/06/11 00:31:03;;;;;;;2.92;0.60;;;;;;;19.77;66.00;100672.72;4961621;29;20039;-89
2022/06/11 00:33:29;;;;;;;0.80;0.47;;;;;;;19.64;66.96;100676.34;5037218;28;20052;-87
2022/06/11 00:35:55;;;;;;;2.88;0.30;;;;;;;19.61;67.00;100671.41;5036744;28;20045;-89
2022/06/11 00:38:22;;;;;;;0.47;0.38;;;;;;;19.78;67.14;100669.84;5034964;28;20036;-89
2022/06/11 00:40:52;;;;;;;0.52;0.30;;;;;;;19.67;67.11;100669.69;5034550;28;20033;-88
2022/06/11 00:43:20;;;;;;;0.82;0.30;;;;;;;19.55;67.09;100669.59;5036485;28;20061;-87
2022/06/11 00:45:58;;;;;;;1.70;0.50;;;;;;;19.46;67.43;100671.69;5038245;28;20395;-89
2022/06/11 00:51:17;;;;;;;0.95;0.30;;;;;;;19.36;68.11;100670.47;5013018;28;20050;-86
2022/06/11 00:53:51;;;;;;;2.40;0.68;;;;;;;19.32;68.38;100670.06;5007916;28;20046;-86
2022/06/11 00:56:28;;;;;;;0.73;0.30;;;;;;;19.34;68.02;100667.19;5019676;28;20091;-88
2022/06/11 00:58:58;;;;;;;3.20;0.40;;;;;;;19.71;66.64;100658.28;5014670;28;20030;-88
2022/06/11 01:01:28;;;;;;;2.42;0.45;;;;;;;19.71;66.62;100666.34;5012943;28;20033;-88
2022/06/11 01:03:57;;;;;;;5.03;0.40;;;;;;;19.64;66.69;100662.91;4997204;28;20033;-88
2022/06/11 01:06:53;;;;;;;3.13;0.50;;;;;;;19.68;66.95;100663.28;5013099;28;20022;-88
2022/06/11 01:09:29;;;;;;;0.77;0.40;;;;;;;19.69;67.06;100659.56;5014180;28;20052;-90
2022/06/11 01:12:53;;;;;;;1.00;0.50;;;;;;;19.75;67.41;100664.06;5012705;28;20122;-88
2022/06/11 01:15:31;;;;;;;1.95;0.55;;;;;;;19.72;68.03;100659.13;4953387;29;20054;-87
2022/06/11 01:18:31;;;;;;;1.45;0.52;;;;;;;19.57;68.44;100676.38;5002970;28;20069;-88
2022/06/11 01:21:24;;;;;;;0.82;0.55;;;;;;;19.45;68.78;100674.59;5012739;28;20052;-87
2022/06/11 01:24:18;;;;;;;2.72;0.50;;;;;;;19.40;69.02;100677.06;5012561;28;20064;-87
2022/06/11 01:27:34;;;;;;;1.35;0.45;;;;;;;19.41;69.03;100678.75;5013577;28;20037;-86
2022/06/11 01:30:24;;;;;;;3.30;0.43;;;;;;;19.39;68.98;100681.63;4959004;28;20450;-87
2022/06/11 01:33:14;;;;;;;4.35;0.82;;;;;;;19.35;68.43;100675.06;5005867;28;20514;-88
2022/06/11 01:35:58;;;;;;;1.95;0.50;;;;;;;19.34;68.54;100677.94;5013532;28;20038;-88
2022/06/11 01:38:41;;;;;;;1.08;0.30;;;;;;;19.23;69.18;100681.28;5013637;28;20041;-87
2022/06/11 01:41:33;;;;;;;2.88;0.40;;;;;;;19.41;68.17;100684.97;5013773;28;20034;-89
2022/06/11 01:44:08;;;;;;;5.30;0.50;;;;;;;19.74;66.70;100679.38;5013686;28;20049;-88
2022/06/11 01:46:38;;;;;;;3.30;0.43;;;;;;;19.78;66.37;100685.13;5013407;28;20281;-89
2022/06/11 01:49:04;;;;;;;0.93;0.43;;;;;;;19.86;64.79;100693.75;5013606;28;20092;-89
2022/06/11 01:51:44;;;;;;;2.75;0.40;;;;;;;19.83;65.41;100691.50;5013220;28;20034;-87
2022/06/11 01:54:17;;;;;;;0.80;0.43;;;;;;;19.84;65.27;100689.63;5013368;28;20049;-87
2022/06/11 01:57:07;;;;;;;1.50;0.32;;;;;;;19.67;66.23;100694.72;5013184;28;20487;-88
2022/06/11 02:00:07;;;;;;;2.67;0.40;;;;;;;19.40;67.69;100695.88;5012227;28;20395;-85
2022/06/11 02:02:50;;;;;;;0.88;0.50;;;;;;;19.28;68.05;100689.56;5016085;28;20038;-88
2022/06/11 02:05:24;;;;;;;3.03;0.40;;;;;;;19.24;68.89;100691.84;5017112;28;20467;-86
2022/06/11 02:08:19;;;;;;;2.58;0.50;;;;;;;19.11;69.98;100689.22;5016928;28;20069;-89
2022/06/11 02:11:02;;;;;;;3.40;0.47;;;;;;;19.07;69.60;100694.19;5011321;28;20156;-84
2022/06/11 02:13:49;;;;;;;1.58;0.43;;;;;;;18.97;70.53;100693.81;5016915;28;20041;-87
2022/06/11 02:16:24;;;;;;;2.38;0.57;;;;;;;18.99;70.80;100699.00;5015370;28;20095;-89
2022/06/11 02:18:53;;;;;;;1.15;0.38;;;;;;;18.84;71.59;100696.56;5015999;28;20033;-88
2022/06/11 02:21:27;;;;;;;7.13;0.77;;;;;;;18.76;72.23;100702.13;5015891;28;20112;-89
2022/06/11 02:24:08;;;;;;;0.60;0.30;;;;;;;18.56;73.73;100712.91;5015732;28;20034;-86
2022/06/11 02:26:46;;;;;;;1.08;0.57;;;;;;;18.39;76.00;100716.25;5015560;28;20029;-87
2022/06/11 02:29:17;;;;;;;0.47;0.40;;;;;;;18.32;77.31;100710.06;5016913;28;20479;-88
2022/06/11 02:32:05;;;;;;;5.25;0.60;;;;;;;18.25;79.48;100719.97;4999221;28;20045;-91
2022/06/11 02:34:34;;;;;;;2.65;0.60;;;;;;;18.04;81.99;100719.13;4999265;28;20042;-90
2022/06/11 02:37:06;;;;;;;2.67;0.68;;;;;;;17.86;84.08;100710.88;5015650;28;20487;-91
2022/06/11 02:39:35;;;;;;;1.10;0.63;;;;;;;17.82;85.69;100706.94;5017153;28;20030;-88
2022/06/11 02:42:06;;;;;;;2.10;0.60;;;;;;;17.85;85.60;100709.22;5015492;28;20042;-87
2022/06/11 02:44:33;;;;;;;1.35;0.60;;;;;;;17.92;85.17;100712.72;5016988;28;20080;-87
2022/06/11 02:47:02;;;;;;;2.40;0.80;;;;;;;18.01;83.50;100716.84;5017171;28;20116;-85
2022/06/11 02:49:35;;;;;;;0.65;0.50;;;;;;;18.04;83.12;100712.94;5016031;28;20038;-89
2022/06/11 02:52:09;;;;;;;0.55;0.52;;;;;;;18.16;81.47;100718.53;4999403;28;20033;-87
2022/06/11 02:54:35;;;;;;;1.23;0.30;;;;;;;18.15;81.33;100727.59;5015244;28;20034;-88
2022/06/11 02:57:03;;;;;;;1.80;0.65;;;;;;;18.34;79.36;100721.38;5015246;28;20080;-87
2022/06/11 02:59:32;;;;;;;3.75;0.60;;;;;;;18.34;79.83;100724.91;5016357;28;20045;-87
2022/06/11 03:01:58;;;;;;;2.88;0.70;;;;;;;18.37;79.98;100724.47;5016144;28;20030;-87
2022/06/11 03:04:25;;;;;;;3.65;0.60;;;;;;;18.47;79.38;100724.88;5016894;28;20041;-86
2022/06/11 03:06:52;;;;;;;5.95;0.73;;;;;;;18.35;79.63;100720.38;5014995;28;20476;-87
2022/06/11 03:09:22;;;;;;;3.15;0.40;;;;;;;18.42;78.53;100723.88;5015273;28;20034;-88
2022/06/11 03:11:49;;;;;;;3.92;0.60;;;;;;;18.43;77.83;100725.50;5015616;28;20069;-89
2022/06/11 03:14:15;;;;;;;1.48;0.57;;;;;;;18.63;76.97;100725.53;5016201;28;20108;-89
2022/06/11 03:16:42;;;;;;;0.50;0.40;;;;;;;18.76;75.24;100720.94;4998240;28;20080;-88
2022/06/11 03:19:08;;;;;;;1.45;0.55;;;;;;;18.85;74.51;100722.38;5016489;28;20483;-89
2022/06/11 03:21:35;;;;;;;1.55;0.70;;;;;;;18.85;74.49;100719.69;5015701;28;20030;-89
2022/06/11 03:24:00;;;;;;;2.38;0.70;;;;;;;18.69;75.46;100722.84;5015870;28;20037;-88
2022/06/11 03:26:26;;;;;;;1.35;0.50;;;;;;;18.52;75.94;100727.00;5014808;28;20391;-88
2022/06/11 03:28:52;;;;;;;4.68;0.77;;;;;;;18.57;75.75;100725.31;5016118;28;20121;-90
2022/06/11 03:31:18;;;;;;;2.15;0.63;;;;;;;18.77;75.03;100724.44;5027755;28;20041;-84
2022/06/11 03:33:45;;;;;;;3.70;0.77;;;;;;;18.81;73.99;100723.00;5032223;28;20034;-87
2022/06/11 03:36:13;;;;;;;3.00;1.10;;;;;;;18.85;73.24;100727.75;5031615;28;20052;-90
2022/06/11 03:38:41;;;;;;;1.58;0.80;;;;;;;18.80;73.03;100740.13;5019054;28;20088;-89
2022/06/11 03:41:07;;;;;;;1.20;0.50;;;;;;;18.82;72.73;100740.78;5016123;28;20117;-89
2022/06/11 03:43:33;;;;;;;2.08;0.45;;;;;;;18.74;73.11;100740.97;5016754;28;20030;-87
2022/06/11 03:45:59;;;;;;;1.10;0.43;;;;;;;18.79;72.78;100739.31;5016256;28;20030;-91
2022/06/11 03:48:28;;;;;;;1.52;0.75;;;;;;;18.60;74.26;100732.13;5016038;28;20041;-89
2022/06/11 03:50:55;;;;;;;1.38;0.52;;;;;;;18.53;74.42;100734.00;5017735;28;20513;-90
2022/06/11 03:53:21;;;;;;;3.65;0.50;;;;;;;18.63;73.88;100738.97;5025865;28;20053;-87
2022/06/11 03:55:50;;;;;;;1.85;0.52;;;;;;;18.78;73.26;100735.00;5024728;28;20049;-89
2022/06/11 03:58:18;;;;;;;1.05;0.40;;;;;;;18.74;73.50;100736.44;5016411;28;20074;-90
2022/06/11 04:03:30;;;;;;;2.42;0.50;;;;;;;18.51;75.83;100734.22;5022417;28;20073;-87
2022/06/11 04:05:56;;;;;;;1.50;0.50;;;;;;;18.70;74.56;100745.13;5019489;28;20056;-89
2022/06/11 04:08:23;;;;;;;2.55;0.70;;;;;;;18.90;73.75;100743.22;5014859;28;20041;-90
2022/06/11 04:10:51;;;;;;;5.78;0.77;;;;;;;18.94;73.77;100750.66;5014815;28;20080;-88
2022/06/11 04:13:16;;;;;;;7.05;0.82;;;;;;;18.73;75.48;100740.16;5014857;28;20137;-90
2022/06/11 04:15:43;;;;;;;1.75;0.60;;;;;;;18.97;74.98;100758.28;5014139;28;20085;-90
2022/06/11 04:18:20;;;;;;;2.78;0.50;;;;;;;19.18;73.68;100764.41;5016022;28;20045;-90
2022/06/11 04:20:46;;;;;;;6.57;0.90;;;;;;;19.13;74.33;100766.91;5016670;28;20042;-88
2022/06/11 04:23:24;;;;;;;3.15;0.70;;;;;;;19.06;74.81;100767.75;5014673;28;20454;-88
2022/06/11 04:25:51;;;;;;;2.70;0.70;;;;;;;18.98;74.35;100769.84;5016773;28;20033;-90
2022/06/11 04:28:17;;;;;;;2.75;0.80;;;;;;;18.90;73.98;100762.84;5015118;28;20356;-89
2022/06/11 04:30:42;;;;;;;0.82;0.52;;;;;;;18.89;74.30;100771.13;5014740;28;20041;-91
2022/06/11 04:33:08;;;;;;;4.43;0.57;;;;;;;18.80;74.34;100772.38;5014977;28;20036;-86
2022/06/11 04:35:34;;;;;;;2.08;0.80;;;;;;;18.77;74.65;100773.63;5013513;28;20050;-89
2022/06/11 04:38:01;;;;;;;1.80;0.85;;;;;;;18.79;75.81;100782.28;5015313;28;20037;-87
2022/06/11 04:40:27;;;;;;;3.97;0.60;;;;;;;18.81;75.07;100782.91;5019522;28;20036;-90
2022/06/11 04:42:52;;;;;;;3.80;0.57;;;;;;;18.90;74.38;100778.97;5022000;28;20483;-90
2022/06/11 04:45:18;;;;;;;4.65;0.70;;;;;;;19.01;73.83;100781.00;5017956;28;20120;-91
2022/06/11 04:47:44;;;;;;;3.03;0.75;;;;;;;19.08;72.94;100792.56;5037110;28;20033;-87
2022/06/11 04:50:14;;;;;;;1.38;0.60;;;;;;;19.25;71.55;100784.03;5035898;28;20030;-89
2022/06/11 04:52:39;;;;;;;2.50;0.50;;;;;;;19.26;71.16;100788.34;5032479;28;20056;-90
2022/06/11 04:55:05;;;;;;;1.48;0.57;;;;;;;19.30;71.05;100789.59;5016704;28;20499;-93
2022/06/11 04:57:31;;;;;;;5.00;0.50;;;;;;;19.32;70.85;100788.34;4999749;28;20031;-91
2022/06/11 04:59:57;;;;;;;2.45;0.70;;;;;;;19.37;71.26;100785.00;4995893;28;20465;-90
2022/06/11 05:02:23;;;;;;;2.65;0.80;;;;;;;19.40;70.92;100787.28;4997444;28;20129;-91
2022/06/11 05:04:48;;;;;;;2.65;0.50;;;;;;;19.53;70.04;100795.31;4996360;28;20396;-85
2022/06/11 05:07:14;;;;;;;3.97;0.60;;;;;;;19.60;70.44;100801.50;4995796;28;20463;-89
2022/06/11 05:09:40;;;;;;;3.33;0.77;;;;;;;19.60;70.36;100796.13;4994717;28;20125;-87
2022/06/11 05:12:07;;;;;;;2.90;0.82;;;;;;;19.72;69.91;100801.66;4994846;28;20034;-87
2022/06/11 05:14:33;;;;;;;5.28;0.60;;;;;;;19.81;69.47;100793.13;4993099;28;20038;-87
2022/06/11 05:16:59;;;;;;;2.95;0.90;;;;;;;19.91;68.86;100803.41;4994873;28;20034;-88
2022/06/11 05:19:26;;;;;;;2.10;0.77;;;;;;;19.99;69.05;100806.66;4995000;28;20069;-88
2022/06/11 05:21:53;;;;;;;1.08;0.60;;;;;;;20.12;68.34;100809.25;4993806;28;20150;-86
2022/06/11 05:24:25;;;;;;;1.42;0.88;;;;;;;20.11;68.97;100807.63;4996219;28;20168;-86
2022/06/11 05:27:02;;;;;;;7.90;1.20;;;;;;;20.32;68.72;100805.63;5013757;28;20053;-90
2022/06/11 05:29:35;;;;;;;5.05;0.80;;;;;;;20.48;66.74;100811.28;5012327;28;20048;-88
2022/06/11 05:32:01;;;;;;;7.60;0.70;;;;;;;20.67;65.92;100814.06;5022353;28;20044;-85
2022/06/11 05:34:28;;;;;;;8.38;1.30;;;;;;;20.78;64.70;100814.13;5009701;28;20030;-87
2022/06/11 05:36:55;;;;;;;8.45;1.75;;;;;;;20.91;64.97;100816.69;5007321;28;20034;-87
2022/06/11 05:39:20;;;;;;;10.75;1.23;;;;;;;21.04;62.92;100811.22;5002604;28;20026;-88
2022/06/11 05:41:46;;;;;;;1.95;0.50;;;;;;;21.11;62.17;100816.56;5003570;28;20042;-88
2022/06/11 05:44:12;;;;;;;1.67;0.40;;;;;;;21.22;61.70;100820.38;5003997;28;20121;-89
2022/06/11 05:46:43;;;;;;;2.53;0.50;;;;;;;21.37;61.09;100824.34;5009434;28;20461;-88
2022/06/11 05:49:21;;;;;;;5.07;0.98;;;;;;;21.49;60.64;100824.41;4998982;28;20038;-86
2022/06/11 05:51:55;;;;;;;5.03;1.15;;;;;;;21.61;60.42;100819.88;5014950;28;20057;-86
2022/06/11 05:54:25;;;;;;;4.38;1.05;;;;;;;21.70;61.00;100818.53;5001277;28;20034;-90
2022/06/11 05:56:52;;;;;;;4.43;0.90;;;;;;;21.81;60.58;100827.75;5004850;28;20088;-88
2022/06/11 05:59:26;;;;;;;6.22;1.38;;;;;;;22.09;59.95;100826.13;5002480;28;20066;-88
2022/06/11 06:01:54;;;;;;;10.68;1.25;;;;;;;22.22;58.13;100835.06;4995428;28;20061;-85
2022/06/11 06:04:19;;;;;;;4.97;1.20;;;;;;;22.32;58.05;100829.94;4993459;28;20049;-87
2022/06/11 06:06:45;;;;;;;2.47;0.68;;;;;;;22.55;57.66;100824.56;4994456;28;20030;-89
2022/06/11 06:09:10;;;;;;;6.75;0.98;;;;;;;22.99;56.81;100832.16;5008290;28;20062;-86
2022/06/11 06:11:36;;;;;;;4.43;1.05;;;;;;;23.25;57.07;100836.25;4999577;28;20034;-87
2022/06/11 06:14:01;;;;;;;4.68;1.00;;;;;;;23.28;55.99;100843.06;5004276;28;20039;-85
2022/06/11 06:16:29;;;;;;;5.30;1.08;;;;;;;23.34;56.06;100845.63;5001660;28;20142;-88
2022/06/11 06:18:55;;;;;;;3.15;1.10;;;;;;;23.52;56.84;100840.09;4998438;28;20509;-85
2022/06/11 06:21:24;;;;;;;1.48;1.00;;;;;;;23.83;56.68;100846.13;5003679;28;20033;-87
2022/06/11 06:23:50;;;;;;;8.80;1.67;;;;;;;24.03;56.36;100849.19;4991351;28;20034;-87
2022/06/11 06:26:16;;;;;;;5.68;1.20;;;;;;;24.22;56.20;100847.16;5005931;28;20045;-86
2022/06/11 06:28:42;;;;;;;6.47;1.20;;;;;;;24.58;54.46;100836.69;4992962;28;20038;-85
2022/06/11 06:31:09;;;;;;;5.57;1.85;;;;;;;24.95;52.48;100842.44;5005482;28;20034;-84
2022/06/11 06:33:36;;;;;;;2.70;1.23;;;;;;;25.28;52.14;100851.59;5000259;28;20415;-87
2022/06/11 06:36:03;;;;;;;3.03;1.08;;;;;;;27.20;46.53;100843.47;4995618;28;20492;-84
2022/06/11 06:38:29;;;;;;;4.15;1.08;;;;;;;26.45;47.58;100857.34;5010993;28;20033;-87
2022/06/11 06:40:55;;;;;;;14.85;1.50;;;;;;;26.35;48.32;100863.47;4993417;28;20506;-84
2022/06/11 06:43:21;;;;;;;12.68;1.67;;;;;;;25.70;50.88;100855.41;5003319;28;20034;-85
2022/06/11 06:45:47;;;;;;;10.18;1.58;;;;;;;25.61;51.62;100856.94;4996658;28;20040;-91
2022/06/11 06:48:12;;;;;;;9.68;1.50;;;;;;;27.20;47.66;100855.19;5005561;28;20033;-87
2022/06/11 06:50:38;;;;;;;8.35;1.80;;;;;;;27.37;47.25;100870.53;5003942;28;20165;-88
2022/06/11 06:53:04;;;;;;;7.90;1.60;;;;;;;26.77;48.57;100865.47;4991326;28;20031;-90
2022/06/11 06:55:30;;;;;;;20.92;2.00;;;;;;;27.30;47.89;100865.31;5008875;28;20042;-88
2022/06/11 06:57:56;;;;;;;6.68;1.67;;;;;;;27.24;46.43;100864.44;4999773;28;20045;-90
2022/06/11 07:00:24;;;;;;;9.00;1.90;;;;;;;26.46;48.13;100864.38;5002508;28;20100;-92
2022/06/11 07:02:53;;;;;;;7.22;1.52;;;;;;;26.59;48.14;100869.41;5010469;28;20073;-92
2022/06/11 07:05:23;;;;;;;11.07;2.40;;;;;;;26.71;46.32;100873.56;5016325;28;20089;-91
2022/06/11 07:07:49;;;;;;;6.72;1.50;;;;;;;27.83;44.62;100864.22;5016060;28;20042;-91
2022/06/11 07:10:19;;;;;;;3.33;1.63;;;;;;;27.81;43.79;100858.19;5004541;28;20450;-93
2022/06/11 07:12:47;;;;;;;16.13;2.20;;;;;;;27.50;44.85;100861.91;5013524;28;20042;-88
2022/06/11 07:15:13;;;;;;;7.50;2.13;;;;;;;26.65;46.59;100869.19;5003270;28;20042;-92
2022/06/11 07:17:47;;;;;;;8.30;1.92;;;;;;;26.17;47.24;100864.66;5004511;28;20038;-90
2022/06/11 07:20:18;;;;;;;4.45;1.55;;;;;;;26.35;47.22;100865.38;5010364;28;20391;-91
2022/06/11 07:23:02;;;;;;;7.53;1.70;;;;;;;26.80;47.24;100871.22;5006182;28;20038;-90
2022/06/11 07:25:30;;;;;;;5.95;1.50;;;;;;;26.94;46.54;100871.63;5009270;28;20456;-88
2022/06/11 07:28:01;;;;;;;4.50;1.25;;;;;;;26.62;45.83;100875.13;5012921;28;20041;-87
2022/06/11 07:30:30;;;;;;;4.07;1.48;;;;;;;27.58;44.64;100864.09;5012290;28;20133;-85
2022/06/11 07:33:01;;;;;;;7.88;1.70;;;;;;;27.89;43.21;100873.22;5001269;28;20037;-87
2022/06/11 07:35:27;;;;;;;6.32;1.52;;;;;;;27.55;44.43;100865.47;5005924;28;20036;-85
2022/06/11 07:37:56;;;;;;;7.75;1.90;;;;;;;28.02;45.05;100868.06;4999511;28;20120;-82
2022/06/11 07:40:26;;;;;;;8.73;1.60;;;;;;;29.14;42.33;100869.78;5002633;28;20027;-90
2022/06/11 07:42:51;;;;;;;5.30;1.70;;;;;;;28.91;43.69;100869.56;4999290;28;20553;-85
2022/06/11 07:45:17;;;;;;;7.60;1.30;;;;;;;30.09;42.07;100872.47;5003150;28;20030;-87
2022/06/11 07:47:55;;;;;;;6.47;1.70;;;;;;;29.97;41.38;100872.81;5000594;28;20041;-87
2022/06/11 07:50:24;;;;;;;11.52;1.83;;;;;;;30.26;41.05;100873.72;5004792;28;20045;-92
2022/06/11 07:52:51;;;;;;;5.13;2.15;;;;;;;30.12;41.19;100872.72;4998261;28;20410;-90
2022/06/11 07:55:20;;;;;;;9.75;2.20;;;;;;;30.47;40.42;100876.34;5000693;28;20110;-89
2022/06/11 07:57:46;;;;;;;15.55;2.78;;;;;;;30.12;41.02;100871.91;5006201;28;20117;-91
2022/06/11 08:00:17;;;;;;;9.73;2.42;;;;;;;30.70;41.55;100872.84;5006793;28;20129;-89
2022/06/11 08:02:44;;;;;;;9.30;2.53;;;;;;;30.54;39.63;100880.38;5000243;28;20391;-87
2022/06/11 08:05:10;;;;;;;12.70;2.65;;;;;;;30.98;38.80;100876.75;5021727;28;20042;-90
2022/06/11 08:07:35;;;;;;;13.52;2.42;;;;;;;32.16;37.28;100878.63;4998282;28;20034;-89
2022/06/11 08:10:02;;;;;;;7.38;2.85;;;;;;;31.70;38.11;100875.69;5008690;28;20121;-86
2022/06/11 08:12:27;;;;;;;10.43;3.42;;;;;;;30.24;40.37;100883.31;5002675;28;20033;-87
2022/06/11 08:14:59;;;;;;;9.27;3.45;;;;;;;30.92;39.27;100881.44;5001924;28;20030;-88
2022/06/11 08:17:27;;;;;;;8.85;2.88;;;;;;;30.75;37.80;100889.25;5004044;28;20129;-88
2022/06/11 08:19:53;;;;;;;10.35;2.97;;;;;;;32.74;34.91;100887.38;5001734;28;20104;-89
2022/06/11 08:22:20;;;;;;;8.10;2.80;;;;;;;32.14;36.44;100880.88;5008017;28;20026;-87
2022/06/11 08:24:47;;;;;;;9.15;3.35;;;;;;;30.35;40.45;100884.06;5004469;28;20061;-87
2022/06/11 08:27:12;;;;;;;14.73;3.15;;;;;;;31.08;39.77;100888.44;5004516;28;20407;-90
2022/06/11 08:29:38;;;;;;;10.50;2.65;;;;;;;31.19;37.37;100884.47;5002081;28;20073;-87
2022/06/11 08:32:05;;;;;;;6.95;2.30;;;;;;;30.78;36.99;100888.69;5000472;28;20039;-87
2022/06/11 08:34:38;;;;;;;8.23;2.47;;;;;;;29.50;39.75;100881.44;5015527;28;20041;-86
2022/06/11 08:37:08;;;;;;;4.65;2.50;;;;;;;29.97;39.91;100889.19;5008033;28;20038;-92
2022/06/11 08:39:35;;;;;;;7.50;2.85;;;;;;;29.54;40.68;100881.72;5013800;28;20031;-89
2022/06/11 08:42:07;;;;;;;7.63;3.33;;;;;;;29.15;42.19;100887.81;5003301;23;20140;-91
2022/06/11 08:44:40;;;;;;;6.32;2.97;;;;;;;29.62;41.19;100886.63;4991631;28;20035;-91
2022/06/11 08:47:13;;;;;;;7.63;2.65;;;;;;;29.55;40.73;100889.66;4985006;28;20094;-91
2022/06/11 08:49:46;;;;;;;7.10;2.85;;;;;;;30.35;40.03;100887.63;4992271;28;20434;-90
2022/06/11 08:52:18;;;;;;;5.63;2.53;;;;;;;30.85;37.62;100897.38;4988607;28;20054;-90
2022/06/11 08:54:45;;;;;;;5.82;2.53;;;;;;;30.19;39.13;100886.88;4983525;28;20551;-90
2022/06/11 08:57:18;;;;;;;14.77;2.38;;;;;;;30.36;38.70;100885.69;4971352;28;20057;-91
2022/06/11 08:59:55;;;;;;;6.85;2.08;;;;;;;29.94;39.18;100884.31;4988355;28;20038;-92
2022/06/11 09:02:54;;;;;;;3.75;2.25;;;;;;;29.71;39.77;100890.41;4990243;28;20369;-88
2022/06/11 09:05:28;;;;;;;5.78;1.60;;;;;;;30.24;38.86;100895.06;4999910;28;20022;-92
2022/06/11 09:08:14;;;;;;;9.70;1.40;;;;;;;30.77;36.56;100892.50;4971853;28;20065;-90
2022/06/11 09:11:18;;;;;;;3.17;1.40;;;;;;;30.95;37.83;100894.53;4985281;28;20544;-90
2022/06/11 09:14:24;;;;;;;3.75;1.23;;;;;;;30.95;37.37;100900.03;4992953;28;20034;-89
2022/06/11 09:17:11;;;;;;;2.53;1.25;;;;;;;31.22;35.58;100889.34;4927505;29;20083;-89
2022/06/11 09:19:43;;;;;;;3.88;1.20;;;;;;;31.22;35.27;100891.31;4929949;29;20119;-90
2022/06/11 09:22:27;;;;;;;3.60;1.33;;;;;;;30.78;36.42;100888.69;4938586;29;20410;-90
2022/06/11 09:25:37;;;;;;;5.22;0.90;;;;;;;31.42;36.37;100893.00;4926391;29;20044;-90
2022/06/11 09:28:18;;;;;;;5.57;1.70;;;;;;;31.15;35.69;100888.91;4973284;28;20109;-91
2022/06/11 09:30:53;;;;;;;7.43;1.87;;;;;;;30.98;35.85;100899.47;4988996;28;20038;-88
2022/06/11 09:33:53;;;;;;;4.95;1.10;;;;;;;30.69;36.92;100893.13;4991261;28;20113;-88
2022/06/11 09:36:44;;;;;;;2.80;1.45;;;;;;;30.04;37.95;100886.16;4937167;29;20079;-85
2022/06/11 09:39:23;;;;;;;5.38;1.30;;;;;;;30.15;38.22;100877.63;4934382;29;20529;-89
2022/06/11 09:41:56;;;;;;;8.20;3.67;;;;;;;29.96;38.20;100881.31;4939104;29;20041;-89
2022/06/11 09:44:52;;;;;;;3.05;1.10;;;;;;;29.68;37.94;100882.75;4935498;29;20044;-86
2022/06/11 09:47:32;;;;;;;2.67;1.05;;;;;;;29.74;37.95;100882.47;4977028;28;20173;-86
2022/06/11 09:50:21;;;;;;;5.68;1.00;;;;;;;29.89;38.10;100887.06;4984368;28;20037;-89
2022/06/11 09:53:19;;;;;;;1.42;0.88;;;;;;;30.10;38.19;100883.13;4969480;28;20054;-88
2022/06/11 09:56:11;;;;;;;1.60;1.15;;;;;;;29.84;38.44;100878.88;4992403;28;20464;-85
2022/06/11 09:58:42;;;;;;;3.67;1.30;;;;;;;29.95;38.30;100877.75;4972945;28;20117;-87
2022/06/11 10:01:16;;;;;;;2.03;0.85;;;;;;;30.34;37.83;100882.41;4990897;28;20045;-86
2022/06/11 10:03:55;;;;;;;5.97;1.08;;;;;;;30.58;36.39;100892.41;4991065;28;20125;-87
2022/06/11 10:06:27;;;;;;;2.22;0.90;;;;;;;29.99;36.82;100878.81;4988939;28;20038;-82
2022/06/11 10:09:01;;;;;;;3.38;1.20;;;;;;;30.23;35.79;100884.41;4986844;28;20033;-85
2022/06/11 10:11:51;;;;;;;2.85;1.00;;;;;;;30.44;36.51;100879.63;4992423;28;20129;-87
2022/06/11 10:14:31;;;;;;;6.13;1.02;;;;;;;30.21;36.56;100878.41;4991685;28;20049;-87
2022/06/11 10:17:25;;;;;;;5.03;1.05;;;;;;;29.83;37.16;100865.50;5003892;28;20046;-88
2022/06/11 10:19:56;;;;;;;3.13;1.30;;;;;;;29.49;37.42;100862.63;5044096;22;20086;-87
2022/06/11 10:22:54;;;;;;;6.55;1.38;;;;;;;29.83;35.67;100860.84;4998531;28;20049;-89
2022/06/11 10:25:54;;;;;;;5.97;1.13;;;;;;;30.81;35.36;100870.84;4996894;28;20046;-85
2022/06/11 10:28:26;;;;;;;1.25;0.70;;;;;;;30.91;34.46;100865.28;4993634;28;20043;-88
2022/06/11 10:30:57;;;;;;;2.33;1.08;;;;;;;30.82;34.80;100870.59;5003795;28;20364;-85
2022/06/11 10:33:34;;;;;;;4.28;0.90;;;;;;;31.27;33.42;100864.66;4993150;28;20045;-81
2022/06/11 10:36:06;;;;;;;5.32;1.30;;;;;;;31.17;34.14;100864.78;4990581;28;20036;-81
2022/06/11 10:38:57;;;;;;;2.30;1.10;;;;;;;31.63;33.36;100850.56;4995993;28;20081;-85
2022/06/11 10:42:02;;;;;;;7.10;1.00;;;;;;;31.31;33.52;100856.69;5001347;28;20030;-85
2022/06/11 10:44:38;;;;;;;5.78;1.00;;;;;;;31.42;33.72;100860.13;4998280;28;20145;-85
2022/06/11 10:47:22;;;;;;;5.00;1.10;;;;;;;31.83;32.32;100853.03;4998451;28;20057;-85
2022/06/11 10:50:17;;;;;;;4.45;1.25;;;;;;;32.05;31.10;100847.00;4981744;28;20040;-85
2022/06/11 10:53:04;;;;;;;3.15;1.10;;;;;;;32.14;31.07;100851.53;4997491;28;20053;-85
2022/06/11 10:55:44;;;;;;;2.92;1.10;;;;;;;32.08;30.72;100847.22;4999704;28;20031;-86
2022/06/11 10:58:20;;;;;;;4.43;0.80;;;;;;;31.54;32.07;100841.38;5002257;28;20112;-85
2022/06/11 11:00:57;;;;;;;2.95;1.13;;;;;;;31.19;32.34;100846.13;5001105;28;20066;-85
2022/06/11 11:03:50;;;;;;;3.58;1.17;;;;;;;31.58;32.03;100836.94;4991503;28;20031;-82
2022/06/11 11:06:17;;;;;;;3.03;1.40;;;;;;;31.07;32.13;100842.16;4968605;28;20137;-85
2022/06/11 11:08:54;;;;;;;4.45;1.10;;;;;;;31.35;31.95;100845.97;4992109;28;20023;-84
2022/06/11 11:11:20;;;;;;;6.35;1.42;;;;;;;31.55;30.98;100837.53;4996218;28;20077;-86
2022/06/11 11:13:47;;;;;;;2.58;1.30;;;;;;;31.88;31.13;100830.22;4998913;28;20384;-84
2022/06/11 11:16:12;;;;;;;3.45;1.42;;;;;;;31.76;31.10;100833.38;4995629;28;20039;-88
2022/06/11 11:18:53;;;;;;;3.47;1.25;;;;;;;31.67;29.83;100846.13;4995935;28;20038;-89
2022/06/11 11:21:26;;;;;;;3.58;1.58;;;;;;;31.64;28.99;100833.00;4995552;28;20049;-86
2022/06/11 11:24:13;;;;;;;6.30;1.50;;;;;;;31.86;29.46;100827.75;4989944;28;20697;-90
2022/06/11 11:26:52;;;;;;;3.28;1.23;;;;;;;31.87;29.66;100823.91;4998106;28;20037;-86
2022/06/11 11:29:34;;;;;;;1.60;0.90;;;;;;;31.89;30.61;100826.34;4976215;28;20416;-87
2022/06/11 11:32:02;;;;;;;;;;;;;;;31.35;30.08;100829.53;4975442;28;20035;-84
2022/06/11 11:34:34;;;;;;;5.15;1.70;;;;;;;30.80;30.58;100823.50;4987436;28;19917;-85
2022/06/11 11:37:26;;;;;;;;;;;;;;;30.21;31.74;100824.53;4979533;28;20030;-88
2022/06/11 11:39:55;;;;;;;3.00;1.40;;;;;;;30.21;31.57;100830.00;4994638;28;19925;-86
2022/06/11 11:42:31;;;;;;;3.15;1.45;;;;;;;29.82;32.17;100820.94;5007317;28;20046;-91
2022/06/11 11:44:59;;;;;;;3.28;1.20;;;;;;;29.76;32.44;100817.41;4996355;28;20042;-87
2022/06/11 11:47:46;;;;;;;4.38;1.42;;;;;;;29.67;31.89;100821.81;4996617;28;20160;-84
2022/06/11 11:50:11;;;;;;;4.55;1.50;;;;;;;29.63;31.94;100819.97;4996107;28;20058;-85
2022/06/11 11:53:16;;;;;;;5.63;1.23;;;;;;;29.53;31.34;100811.81;4993666;28;20034;-83
2022/06/11 11:55:57;;;;;;;7.57;1.63;;;;;;;29.62;31.00;100816.41;4997333;28;20037;-87
2022/06/11 11:58:32;;;;;;;5.13;1.48;;;;;;;29.61;30.30;100813.94;5006825;28;20034;-85